Time;durP1;ratioP1;P1;durP2;ratioP2;P2;SDS_P1;SDS_P2;PMS_P1;PMS_P2;Temp;Humidity;BMP_temperature;BMP_pressure;BME280_temperature;BME280_humidity;BME280_pressure;Samples;Min_cycle;Max_cycle;Signal;HPM_P1;HPM_P2
2020/12/26 00:01:18;;;;;;;17.73;8.63;;;1.90;99.90;;;;;;5012110;28;20034;-55
2020/12/26 00:03:46;;;;;;;21.00;8.80;;;1.90;99.90;;;;;;5011880;28;20041;-57
2020/12/26 00:06:19;;;;;;;17.70;8.23;;;1.90;99.90;;;;;;5012234;28;20068;-56
2020/12/26 00:08:46;;;;;;;16.15;7.78;;;1.90;99.90;;;;;;5012077;28;20029;-55
2020/12/26 00:11:14;;;;;;;18.70;8.00;;;2.00;99.90;;;;;;5012232;28;20030;-57
2020/12/26 00:13:40;;;;;;;20.42;9.68;;;1.90;99.90;;;;;;5011702;28;20077;-56
2020/12/26 00:16:07;;;;;;;17.52;7.70;;;2.00;99.90;;;;;;5012230;28;20065;-56
2020/12/26 00:18:34;;;;;;;13.73;6.50;;;1.90;99.90;;;;;;5012426;28;20077;-57
2020/12/26 00:21:05;;;;;;;14.10;7.22;;;1.80;99.90;;;;;;5016003;28;20045;-56
2020/12/26 00:23:31;;;;;;;13.87;6.47;;;1.70;99.90;;;;;;5015651;28;20546;-56
2020/12/26 00:25:56;;;;;;;16.50;7.20;;;1.80;99.90;;;;;;5015640;28;20350;-57
2020/12/26 00:28:22;;;;;;;15.65;6.93;;;1.90;99.90;;;;;;5015870;28;20030;-56
2020/12/26 00:30:48;;;;;;;16.73;6.40;;;1.90;99.90;;;;;;5015679;28;20107;-57
2020/12/26 00:33:14;;;;;;;23.15;7.38;;;1.80;99.90;;;;;;5015778;28;20030;-57
2020/12/26 00:35:40;;;;;;;13.38;7.00;;;1.60;99.90;;;;;;5015500;28;20030;-57
2020/12/26 00:38:06;;;;;;;14.43;7.20;;;1.70;99.90;;;;;;5015291;28;20034;-56
2020/12/26 00:40:32;;;;;;;19.05;6.70;;;1.50;99.90;;;;;;5015747;28;20413;-55
2020/12/26 00:42:58;;;;;;;15.73;8.18;;;1.60;99.90;;;;;;5015653;28;20026;-54
2020/12/26 00:45:24;;;;;;;19.90;9.15;;;1.70;99.90;;;;;;5015515;28;20095;-56
2020/12/26 00:47:50;;;;;;;26.55;10.63;;;1.90;99.90;;;;;;5015425;28;20026;-54
2020/12/26 00:50:16;;;;;;;20.70;9.25;;;2.10;99.90;;;;;;5015399;28;20065;-54
2020/12/26 00:52:42;;;;;;;19.75;9.65;;;2.40;99.90;;;;;;5015383;28;20037;-57
2020/12/26 00:55:07;;;;;;;22.58;8.90;;;2.30;99.90;;;;;;5015094;28;20096;-53
2020/12/26 00:57:34;;;;;;;22.88;8.90;;;2.40;99.90;;;;;;5015401;28;20030;-57
2020/12/26 01:00:00;;;;;;;23.27;9.13;;;2.50;99.90;;;;;;5015370;28;20030;-56
2020/12/26 01:02:26;;;;;;;23.90;9.05;;;2.40;99.90;;;;;;5015304;28;20030;-55
2020/12/26 01:04:52;;;;;;;19.80;8.57;;;2.50;99.90;;;;;;5029570;28;20042;-54
2020/12/26 01:07:18;;;;;;;24.88;10.00;;;2.40;99.90;;;;;;5015305;28;20105;-54
2020/12/26 01:09:44;;;;;;;23.85;11.05;;;2.10;99.90;;;;;;5014815;28;20072;-57
2020/12/26 01:12:10;;;;;;;23.17;10.13;;;2.00;99.90;;;;;;5014841;28;20026;-56
2020/12/26 01:14:36;;;;;;;22.95;9.70;;;1.90;99.90;;;;;;5014556;28;20072;-57
2020/12/26 01:17:02;;;;;;;19.73;8.65;;;1.90;99.90;;;;;;5015089;28;20034;-56
2020/12/26 01:19:28;;;;;;;24.58;9.52;;;2.00;99.90;;;;;;5015007;28;20049;-56
2020/12/26 01:21:54;;;;;;;21.52;8.93;;;1.90;99.90;;;;;;5014838;28;20037;-57
2020/12/26 01:24:21;;;;;;;19.83;8.75;;;2.10;99.90;;;;;;5014839;28;20117;-56
2020/12/26 01:26:51;;;;;;;20.35;8.82;;;2.10;99.90;;;;;;5014723;28;20034;-57
2020/12/26 01:29:18;;;;;;;23.50;9.93;;;2.10;99.90;;;;;;5014854;28;20041;-57
2020/12/26 01:31:50;;;;;;;22.98;9.82;;;2.00;99.90;;;;;;5012353;28;20036;-57
2020/12/26 01:34:16;;;;;;;16.30;8.60;;;2.00;99.90;;;;;;5014679;28;20034;-57
2020/12/26 01:36:42;;;;;;;21.63;8.90;;;1.90;99.90;;;;;;5014165;28;20026;-57
2020/12/26 01:39:08;;;;;;;25.63;9.23;;;1.90;99.90;;;;;;5014648;28;20052;-56
2020/12/26 01:41:34;;;;;;;14.75;8.10;;;1.90;99.90;;;;;;5014593;28;20034;-56
2020/12/26 01:44:02;;;;;;;16.25;8.25;;;1.80;99.90;;;;;;5014440;28;20037;-57
2020/12/26 01:46:31;;;;;;;18.05;8.40;;;1.80;99.90;;;;;;5014478;28;20030;-56
2020/12/26 01:48:59;;;;;;;22.45;9.18;;;1.60;99.90;;;;;;5014314;28;20121;-54
2020/12/26 01:51:29;;;;;;;19.48;8.73;;;1.60;99.90;;;;;;5014296;28;20109;-57
2020/12/26 01:53:57;;;;;;;22.98;9.15;;;1.50;99.90;;;;;;5014201;28;20117;-57
2020/12/26 01:56:25;;;;;;;24.70;9.65;;;1.60;99.90;;;;;;5014307;28;20033;-56
2020/12/26 01:58:51;;;;;;;24.13;9.27;;;1.40;99.90;;;;;;5013043;28;20026;-57
2020/12/26 02:01:17;;;;;;;22.05;9.05;;;1.40;99.90;;;;;;5013923;28;20030;-57
2020/12/26 02:03:43;;;;;;;16.73;8.65;;;1.40;99.90;;;;;;5013987;28;20087;-57
2020/12/26 02:06:10;;;;;;;18.30;9.57;;;1.50;99.90;;;;;;5014201;28;20037;-56
2020/12/26 02:08:37;;;;;;;18.02;8.68;;;1.50;99.90;;;;;;5012824;28;20033;-57
2020/12/26 02:11:05;;;;;;;26.83;9.82;;;1.50;99.90;;;;;;5013982;28;20026;-57
2020/12/26 02:13:32;;;;;;;20.20;10.25;;;1.40;99.90;;;;;;5013572;28;20125;-54
2020/12/26 02:16:06;;;;;;;19.05;10.25;;;1.40;99.90;;;;;;5013707;28;20038;-57
2020/12/26 02:18:36;;;;;;;23.45;10.00;;;1.30;99.90;;;;;;5013961;28;20080;-58
2020/12/26 02:21:04;;;;;;;21.15;9.48;;;1.30;99.90;;;;;;5013512;28;20042;-57
2020/12/26 02:23:33;;;;;;;17.95;9.93;;;1.30;99.90;;;;;;5013781;28;20079;-57
2020/12/26 02:25:59;;;;;;;21.77;9.82;;;1.30;99.90;;;;;;5012416;28;20030;-57
2020/12/26 02:28:25;;;;;;;20.42;9.23;;;1.20;99.90;;;;;;5013735;28;20048;-57
2020/12/26 02:30:54;;;;;;;26.27;11.30;;;1.20;99.90;;;;;;5013607;28;20108;-56
2020/12/26 02:33:20;;;;;;;19.75;10.05;;;1.20;99.90;;;;;;5013677;28;20022;-57
2020/12/26 02:35:47;;;;;;;21.35;10.50;;;1.20;99.90;;;;;;5011875;28;20187;-54
2020/12/26 02:38:18;;;;;;;22.17;9.65;;;1.20;99.90;;;;;;5013224;28;20033;-57
2020/12/26 02:40:47;;;;;;;19.83;9.70;;;1.20;99.90;;;;;;5013427;28;20042;-57
2020/12/26 02:43:31;;;;;;;23.80;10.63;;;1.20;99.90;;;;;;5013511;28;20045;-54
2020/12/26 02:45:57;;;;;;;28.55;11.50;;;1.30;99.90;;;;;;5013295;28;20038;-56
2020/12/26 02:48:23;;;;;;;21.05;9.80;;;1.20;99.90;;;;;;5013061;28;20033;-57
2020/12/26 02:50:49;;;;;;;23.60;11.40;;;1.30;99.90;;;;;;5013071;28;20060;-54
2020/12/26 02:53:16;;;;;;;21.45;10.52;;;1.30;99.90;;;;;;5013238;28;20033;-57
2020/12/26 02:55:42;;;;;;;21.55;10.73;;;1.30;99.90;;;;;;5012890;28;20037;-57
2020/12/26 02:58:08;;;;;;;25.20;10.60;;;1.40;99.90;;;;;;5012834;28;20061;-56
2020/12/26 03:00:34;;;;;;;22.10;10.68;;;1.40;99.90;;;;;;5011732;28;20080;-57
2020/12/26 03:03:00;;;;;;;23.98;10.25;;;1.40;99.90;;;;;;5011785;28;20038;-57
2020/12/26 03:05:25;;;;;;;23.67;10.23;;;1.30;99.90;;;;;;5013024;28;20025;-57
2020/12/26 03:07:51;;;;;;;20.33;10.32;;;1.30;99.90;;;;;;5012956;28;20033;-57
2020/12/26 03:10:18;;;;;;;23.42;10.35;;;1.30;99.90;;;;;;5013037;28;20041;-57
2020/12/26 03:12:44;;;;;;;24.30;10.10;;;1.30;99.90;;;;;;5012809;28;20030;-57
2020/12/26 03:15:11;;;;;;;20.10;10.18;;;1.30;99.90;;;;;;5012390;28;20061;-57
2020/12/26 03:17:36;;;;;;;21.15;10.05;;;1.30;99.90;;;;;;5012889;28;20030;-57
2020/12/26 03:20:05;;;;;;;22.88;9.85;;;1.30;99.90;;;;;;5012712;28;20088;-57
2020/12/26 03:22:32;;;;;;;21.98;9.77;;;1.30;99.90;;;;;;5011299;28;20033;-57
2020/12/26 03:24:59;;;;;;;25.30;10.07;;;1.20;99.90;;;;;;5012657;28;20030;-58
2020/12/26 03:27:26;;;;;;;21.27;9.57;;;1.20;99.90;;;;;;5012762;28;20022;-57
2020/12/26 03:29:53;;;;;;;18.65;10.05;;;1.20;99.90;;;;;;5012595;28;20038;-56
2020/12/26 03:32:21;;;;;;;22.08;10.13;;;1.20;99.90;;;;;;5012698;28;20026;-56
2020/12/26 03:34:47;;;;;;;22.70;10.48;;;1.20;99.90;;;;;;5012389;28;20160;-56
2020/12/26 03:37:13;;;;;;;25.55;12.40;;;1.20;99.90;;;;;;5012643;28;20026;-57
2020/12/26 03:39:39;;;;;;;26.73;11.68;;;1.20;99.90;;;;;;5012414;28;20030;-56
2020/12/26 03:42:06;;;;;;;24.45;10.55;;;1.20;99.90;;;;;;5012471;28;20033;-56
2020/12/26 03:44:33;;;;;;;27.45;10.30;;;1.10;99.90;;;;;;5012606;28;20041;-55
2020/12/26 03:46:59;;;;;;;19.17;10.02;;;1.10;99.90;;;;;;5012096;28;20022;-56
2020/12/26 03:49:26;;;;;;;23.95;10.65;;;1.10;99.90;;;;;;5012528;28;20065;-55
2020/12/26 03:51:53;;;;;;;21.67;10.05;;;1.30;99.90;;;;;;5011078;28;20036;-57
2020/12/26 03:54:22;;;;;;;21.55;9.95;;;1.40;99.90;;;;;;5013982;28;20116;-56
2020/12/26 03:56:48;;;;;;;20.67;10.45;;;1.30;99.90;;;;;;5016141;28;20034;-56
2020/12/26 03:59:15;;;;;;;19.08;10.00;;;1.20;99.90;;;;;;5016005;28;20049;-51
2020/12/26 04:01:41;;;;;;;23.05;10.70;;;1.30;99.90;;;;;;5014972;28;20045;-52
2020/12/26 04:04:07;;;;;;;22.70;11.18;;;1.20;99.90;;;;;;5016322;28;20123;-56
2020/12/26 04:06:33;;;;;;;25.63;10.88;;;1.20;99.90;;;;;;5016441;28;20088;-54
2020/12/26 04:08:59;;;;;;;20.52;10.80;;;1.20;99.90;;;;;;5016277;28;20095;-57
2020/12/26 04:11:25;;;;;;;23.65;10.07;;;1.10;99.90;;;;;;5016300;28;20026;-57
2020/12/26 04:13:52;;;;;;;25.00;10.43;;;1.10;99.90;;;;;;5015732;28;20121;-55
2020/12/26 04:16:18;;;;;;;26.60;10.38;;;1.10;99.90;;;;;;5015995;28;20037;-56
2020/12/26 04:18:44;;;;;;;23.40;10.65;;;1.20;99.90;;;;;;5016177;28;20029;-56
2020/12/26 04:21:10;;;;;;;24.30;10.60;;;1.20;99.90;;;;;;5015975;28;20109;-57
2020/12/26 04:23:36;;;;;;;24.10;11.23;;;1.20;99.90;;;;;;5014475;28;20068;-54
2020/12/26 04:26:03;;;;;;;21.48;10.80;;;1.00;99.90;;;;;;5015896;28;20030;-57
2020/12/26 04:28:29;;;;;;;23.48;10.75;;;1.00;99.90;;;;;;5015954;28;20073;-57
2020/12/26 04:30:55;;;;;;;22.10;9.95;;;1.00;99.90;;;;;;5015765;28;20084;-57
2020/12/26 04:33:21;;;;;;;23.05;11.05;;;1.10;99.90;;;;;;5015579;28;20034;-58
2020/12/26 04:35:47;;;;;;;22.92;9.95;;;1.10;99.90;;;;;;5015725;28;20026;-56
2020/12/26 04:38:13;;;;;;;26.08;11.38;;;1.20;99.90;;;;;;5015670;28;20052;-57
2020/12/26 04:40:39;;;;;;;29.75;11.75;;;1.10;99.90;;;;;;5015736;28;20172;-57
2020/12/26 04:43:06;;;;;;;22.67;10.65;;;1.10;99.90;;;;;;5015510;28;20077;-57
2020/12/26 04:45:33;;;;;;;24.98;10.50;;;1.10;99.90;;;;;;5015651;28;20054;-56
2020/12/26 04:48:04;;;;;;;25.38;10.25;;;1.30;99.90;;;;;;5015453;28;20025;-57
2020/12/26 04:50:34;;;;;;;24.70;10.45;;;1.20;99.90;;;;;;5015562;28;20025;-56
2020/12/26 04:53:04;;;;;;;21.67;10.55;;;1.20;99.90;;;;;;5015377;28;20041;-56
2020/12/26 04:55:33;;;;;;;23.20;9.98;;;1.20;99.90;;;;;;5015347;28;20042;-57
2020/12/26 04:58:06;;;;;;;23.92;10.95;;;1.20;99.90;;;;;;5015066;28;20034;-57
2020/12/26 05:00:34;;;;;;;20.02;10.50;;;1.10;99.90;;;;;;5015347;28;20041;-57
2020/12/26 05:03:09;;;;;;;22.13;10.32;;;1.10;99.90;;;;;;5014947;28;20108;-57
2020/12/26 05:05:38;;;;;;;23.90;10.43;;;1.10;99.90;;;;;;5014993;28;20029;-56
2020/12/26 05:08:06;;;;;;;21.00;9.32;;;1.10;99.90;;;;;;5015130;28;20041;-57
2020/12/26 05:10:33;;;;;;;25.17;10.48;;;1.10;99.90;;;;;;5014922;28;20030;-56
2020/12/26 05:13:00;;;;;;;18.65;10.50;;;1.10;99.90;;;;;;5014829;28;20033;-57
2020/12/26 05:15:26;;;;;;;21.35;9.90;;;1.10;99.90;;;;;;5015046;28;20038;-57
2020/12/26 05:17:52;;;;;;;24.25;9.88;;;1.00;99.90;;;;;;5014970;28;20057;-56
2020/12/26 05:20:25;;;;;;;20.45;10.25;;;1.10;99.90;;;;;;5014993;28;20042;-56
2020/12/26 05:23:12;;;;;;;23.60;10.27;;;1.00;99.90;;;;;;5014746;28;20038;-57
2020/12/26 05:25:48;;;;;;;22.23;10.98;;;1.10;99.90;;;;;;5014939;28;20030;-54
2020/12/26 05:28:31;;;;;;;25.42;10.50;;;1.10;99.90;;;;;;5014766;28;20026;-56
2020/12/26 05:30:57;;;;;;;18.33;9.77;;;1.10;99.90;;;;;;5029937;28;20083;-57
2020/12/26 05:33:28;;;;;;;22.75;9.98;;;1.20;99.90;;;;;;5014747;28;20030;-57
2020/12/26 05:36:04;;;;;;;25.17;10.85;;;1.20;99.90;;;;;;5014359;28;20048;-57
2020/12/26 05:38:30;;;;;;;20.05;9.60;;;1.10;99.90;;;;;;5013317;28;20041;-57
2020/12/26 05:40:59;;;;;;;22.95;11.02;;;1.10;99.90;;;;;;5014635;28;20034;-57
2020/12/26 05:43:30;;;;;;;25.95;11.70;;;1.10;99.90;;;;;;5014627;28;20030;-57
2020/12/26 05:45:57;;;;;;;25.45;11.02;;;1.40;99.90;;;;;;5014574;28;20030;-56
2020/12/26 05:48:26;;;;;;;20.42;10.45;;;1.40;99.90;;;;;;5013299;28;20037;-57
2020/12/26 05:51:00;;;;;;;22.25;10.52;;;1.30;99.90;;;;;;5014371;28;20032;-54
2020/12/26 05:53:28;;;;;;;23.25;9.50;;;1.20;99.90;;;;;;5014175;28;20030;-57
2020/12/26 05:55:55;;;;;;;20.23;9.75;;;1.20;99.90;;;;;;5014208;28;20084;-57
2020/12/26 05:58:23;;;;;;;22.15;10.50;;;1.20;99.90;;;;;;5014257;28;20029;-57
2020/12/26 06:00:50;;;;;;;28.70;11.05;;;1.10;99.90;;;;;;5014272;28;20042;-57
2020/12/26 06:03:36;;;;;;;24.20;10.82;;;1.10;99.90;;;;;;5012622;28;20033;-57
2020/12/26 06:06:05;;;;;;;23.52;10.13;;;1.20;99.90;;;;;;5013987;28;20034;-55
2020/12/26 06:08:31;;;;;;;22.98;10.00;;;1.20;99.90;;;;;;5014195;28;20050;-56
2020/12/26 06:10:59;;;;;;;23.63;9.65;;;1.20;99.90;;;;;;5014000;28;20036;-55
2020/12/26 06:13:31;;;;;;;20.60;9.85;;;1.10;99.90;;;;;;5013738;28;20045;-51
2020/12/26 06:16:11;;;;;;;19.13;9.52;;;1.20;99.90;;;;;;5013458;28;20038;-54
2020/12/26 06:18:49;;;;;;;18.80;9.13;;;1.30;99.90;;;;;;5013621;28;20042;-55
2020/12/26 06:21:17;;;;;;;22.73;10.52;;;1.40;99.90;;;;;;5012714;28;20044;-54
2020/12/26 06:23:44;;;;;;;20.48;10.10;;;1.60;99.90;;;;;;5012528;28;20034;-56
2020/12/26 06:26:10;;;;;;;22.10;10.88;;;1.40;99.90;;;;;;5013324;28;20058;-58
2020/12/26 06:28:36;;;;;;;19.75;9.75;;;1.30;99.90;;;;;;5013763;28;20065;-58
2020/12/26 06:31:08;;;;;;;19.20;9.98;;;1.30;99.90;;;;;;5013285;28;20084;-54
2020/12/26 06:33:42;;;;;;;26.02;9.85;;;1.20;99.90;;;;;;5013594;28;20036;-57
2020/12/26 06:36:10;;;;;;;19.95;9.35;;;1.10;99.90;;;;;;5013446;28;20049;-57
2020/12/26 06:38:37;;;;;;;23.75;10.15;;;1.10;99.90;;;;;;5013600;28;20113;-57
2020/12/26 06:41:06;;;;;;;20.80;9.88;;;1.10;99.90;;;;;;5013335;28;20033;-57
2020/12/26 06:43:57;;;;;;;18.75;9.48;;;1.10;99.90;;;;;;5013451;28;20030;-56
2020/12/26 06:46:23;;;;;;;22.98;10.57;;;1.10;99.90;;;;;;5013482;28;20034;-57
2020/12/26 06:48:55;;;;;;;21.77;9.02;;;1.00;99.90;;;;;;5013355;28;20037;-56
2020/12/26 06:51:40;;;;;;;21.23;9.57;;;1.10;99.90;;;;;;5028341;28;20034;-57
2020/12/26 06:54:14;;;;;;;21.75;9.02;;;1.10;99.90;;;;;;5013046;28;20044;-58
2020/12/26 06:56:40;;;;;;;20.83;10.18;;;1.00;99.90;;;;;;5013237;28;20065;-57
2020/12/26 06:59:10;;;;;;;19.05;9.40;;;1.10;99.90;;;;;;5013013;28;20061;-57
2020/12/26 07:01:39;;;;;;;23.90;9.77;;;1.10;99.90;;;;;;5013393;28;20030;-57
2020/12/26 07:04:11;;;;;;;20.77;10.38;;;1.20;99.90;;;;;;5012576;28;20034;-57
2020/12/26 07:06:37;;;;;;;;;;;1.20;99.90;;;;;;5013358;28;20137;-57
2020/12/26 07:09:04;;;;;;;25.80;9.40;;;1.10;99.90;;;;;;5012793;28;19961;-57
2020/12/26 07:11:30;;;;;;;16.75;9.52;;;1.20;99.90;;;;;;5012895;28;20042;-57
2020/12/26 07:13:57;;;;;;;24.17;11.57;;;1.10;99.90;;;;;;5012462;28;20042;-56
2020/12/26 07:16:37;;;;;;;24.75;10.98;;;1.10;99.90;;;;;;5012681;28;20084;-56
2020/12/26 07:19:29;;;;;;;29.13;11.18;;;1.20;99.90;;;;;;5012422;28;20034;-57
2020/12/26 07:22:00;;;;;;;23.40;10.07;;;1.10;99.90;;;;;;5012800;28;20038;-56
2020/12/26 07:24:29;;;;;;;22.45;9.52;;;1.00;99.90;;;;;;5012720;28;20100;-56
2020/12/26 07:27:11;;;;;;;21.92;9.38;;;1.10;99.90;;;;;;5012404;28;20036;-57
2020/12/26 07:29:53;;;;;;;24.00;10.43;;;1.20;99.90;;;;;;5011862;28;20164;-57
2020/12/26 07:32:45;;;;;;;25.33;10.60;;;1.20;99.90;;;;;;5012488;28;20108;-57
2020/12/26 07:35:25;;;;;;;19.77;9.75;;;1.30;99.90;;;;;;5012389;28;20034;-54
2020/12/26 07:37:51;;;;;;;20.98;10.45;;;1.30;99.90;;;;;;5012504;28;20037;-57
2020/12/26 07:40:22;;;;;;;23.77;10.18;;;1.40;99.90;;;;;;5012378;28;20034;-57
2020/12/26 07:42:49;;;;;;;20.92;9.63;;;1.30;99.90;;;;;;5012438;28;20038;-57
2020/12/26 07:45:21;;;;;;;25.65;10.68;;;1.30;99.90;;;;;;5011961;28;20040;-57
2020/12/26 07:47:54;;;;;;;24.00;9.77;;;1.40;99.90;;;;;;5012212;28;20056;-57
2020/12/26 07:50:23;;;;;;;21.77;10.13;;;1.30;99.90;;;;;;5012127;28;20034;-57
2020/12/26 07:52:51;;;;;;;19.73;8.90;;;1.30;99.90;;;;;;5012236;28;20038;-56
2020/12/26 07:55:18;;;;;;;17.60;8.40;;;1.20;99.90;;;;;;5012107;28;20117;-56
2020/12/26 07:57:45;;;;;;;19.60;8.60;;;1.30;99.90;;;;;;5012042;28;20030;-57
2020/12/26 08:00:25;;;;;;;17.67;8.50;;;1.30;99.90;;;;;;5012247;28;20034;-54
2020/12/26 08:02:54;;;;;;;16.48;8.63;;;1.30;99.90;;;;;;5012332;28;20038;-56
2020/12/26 08:05:27;;;;;;;24.15;9.45;;;1.40;99.90;;;;;;5012182;28;20042;-57
2020/12/26 08:07:54;;;;;;;18.42;9.75;;;1.40;99.90;;;;;;5012063;28;20134;-56
2020/12/26 08:10:21;;;;;;;18.73;8.55;;;1.50;99.90;;;;;;5012083;28;20026;-55
2020/12/26 08:13:13;;;;;;;20.75;9.02;;;1.50;99.90;;;;;;5011906;28;20084;-58
2020/12/26 08:15:39;;;;;;;17.73;8.20;;;1.60;99.90;;;;;;5010841;28;20042;-58
2020/12/26 08:18:05;;;;;;;18.33;8.82;;;1.60;99.90;;;;;;5011945;28;20033;-55
2020/12/26 08:20:34;;;;;;;19.80;8.32;;;1.60;99.90;;;;;;5012137;28;20117;-58
2020/12/26 08:23:00;;;;;;;18.35;9.27;;;1.60;99.90;;;;;;5012142;28;20120;-57
2020/12/26 08:25:28;;;;;;;20.02;8.45;;;1.70;99.90;;;;;;5010782;28;20029;-54
2020/12/26 08:27:55;;;;;;;17.25;8.57;;;1.80;99.90;;;;;;5011960;28;20022;-58
2020/12/26 08:30:35;;;;;;;19.85;8.50;;;1.80;99.90;;;;;;5011858;28;20037;-58
2020/12/26 08:33:19;;;;;;;21.88;9.80;;;1.70;99.90;;;;;;5010907;28;20040;-58
2020/12/26 08:36:04;;;;;;;21.48;9.82;;;1.60;99.90;;;;;;5011900;28;20088;-55
2020/12/26 08:38:48;;;;;;;20.73;8.45;;;1.70;99.90;;;;;;5010420;28;20030;-56
2020/12/26 08:41:17;;;;;;;20.42;9.45;;;1.70;99.90;;;;;;5012614;28;20029;-56
2020/12/26 08:43:43;;;;;;;27.65;9.63;;;1.70;99.90;;;;;;5015062;28;20040;-54
2020/12/26 08:46:19;;;;;;;21.42;9.82;;;1.80;99.90;;;;;;5015330;28;20037;-57
2020/12/26 08:48:46;;;;;;;23.50;9.80;;;2.00;99.90;;;;;;5015454;28;20034;-55
2020/12/26 08:51:24;;;;;;;21.63;10.38;;;2.00;99.90;;;;;;5015119;28;20026;-56
2020/12/26 08:53:53;;;;;;;20.77;9.45;;;2.10;99.90;;;;;;5015137;28;20037;-56
2020/12/26 08:56:38;;;;;;;19.67;9.27;;;2.00;99.90;;;;;;5014955;28;20033;-57
2020/12/26 08:59:05;;;;;;;21.20;9.82;;;1.90;99.90;;;;;;5015037;28;20096;-57
2020/12/26 09:01:33;;;;;;;21.23;10.55;;;2.00;99.90;;;;;;4995421;28;20035;-56
2020/12/26 09:04:15;;;;;;;21.58;9.85;;;2.00;99.90;;;;;;4995650;28;20114;-60
2020/12/26 09:06:42;;;;;;;22.45;10.68;;;2.10;99.90;;;;;;5028002;28;20110;-55
2020/12/26 09:09:24;;;;;;;23.73;9.32;;;2.20;99.90;;;;;;5013395;28;20068;-56
2020/12/26 09:12:05;;;;;;;21.75;9.05;;;2.40;99.90;;;;;;5014201;28;20030;-55
2020/12/26 09:14:32;;;;;;;19.95;8.20;;;2.50;99.90;;;;;;5013949;28;20053;-55
2020/12/26 09:17:00;;;;;;;16.05;8.77;;;2.50;99.90;;;;;;5012024;28;20041;-57
2020/12/26 09:19:41;;;;;;;20.15;9.27;;;2.70;99.90;;;;;;5014332;28;20022;-59
2020/12/26 09:22:09;;;;;;;22.98;9.25;;;2.60;99.90;;;;;;5013037;28;20026;-58
2020/12/26 09:24:35;;;;;;;21.17;8.95;;;2.80;99.90;;;;;;5013084;28;20026;-58
2020/12/26 09:27:01;;;;;;;19.80;8.27;;;2.70;99.90;;;;;;5014538;28;20120;-58
2020/12/26 09:29:27;;;;;;;17.05;9.70;;;2.90;99.90;;;;;;5014504;28;20117;-58
2020/12/26 09:31:53;;;;;;;19.05;8.68;;;3.10;99.90;;;;;;5014454;28;20067;-59
2020/12/26 09:34:21;;;;;;;18.45;8.82;;;3.20;99.90;;;;;;5014307;28;20495;-57
2020/12/26 09:37:01;;;;;;;22.02;8.52;;;3.40;99.90;;;;;;5014161;28;20046;-58
2020/12/26 09:39:27;;;;;;;23.35;8.98;;;3.30;99.90;;;;;;5014351;28;20115;-58
2020/12/26 09:41:53;;;;;;;19.70;9.00;;;3.40;99.90;;;;;;5014288;28;20111;-57
2020/12/26 09:44:19;;;;;;;19.65;9.68;;;3.20;99.90;;;;;;5014366;28;20034;-59
2020/12/26 09:46:45;;;;;;;21.23;9.10;;;3.40;99.90;;;;;;5029370;28;20091;-58
2020/12/26 09:49:11;;;;;;;20.50;8.27;;;3.00;99.90;;;;;;5013866;28;20037;-57
2020/12/26 09:51:37;;;;;;;22.63;9.70;;;2.90;99.90;;;;;;5012909;28;20435;-57
2020/12/26 09:54:04;;;;;;;22.17;8.82;;;3.20;99.90;;;;;;5013884;28;20056;-57
2020/12/26 09:56:30;;;;;;;15.40;8.27;;;3.40;99.90;;;;;;5013700;28;20037;-59
2020/12/26 09:58:56;;;;;;;14.65;8.57;;;4.40;99.90;;;;;;5014130;28;20026;-59
2020/12/26 10:01:22;;;;;;;15.02;7.10;;;5.10;99.90;;;;;;5013918;28;20078;-58
2020/12/26 10:03:50;;;;;;;15.38;7.45;;;6.20;99.90;;;;;;5014077;28;20042;-59
2020/12/26 10:06:20;;;;;;;16.60;6.80;;;5.80;99.90;;;;;;5013654;28;20033;-59
2020/12/26 10:08:48;;;;;;;24.08;10.95;;;7.50;99.90;;;;;;5013942;28;20030;-56
2020/12/26 10:11:16;;;;;;;10.32;6.38;;;8.60;99.90;;;;;;5013629;28;20029;-58
2020/12/26 10:13:43;;;;;;;13.07;6.57;;;9.00;99.90;;;;;;5013684;28;20061;-58
2020/12/26 10:16:10;;;;;;;16.80;6.57;;;8.90;99.90;;;;;;5013522;28;20041;-58
2020/12/26 10:18:37;;;;;;;12.98;6.55;;;9.90;99.90;;;;;;5012434;28;20553;-60
2020/12/26 10:21:03;;;;;;;12.45;6.53;;;9.30;99.90;;;;;;5013668;28;20033;-58
2020/12/26 10:23:29;;;;;;;12.50;5.18;;;8.80;99.90;;;;;;5012334;28;20030;-58
2020/12/26 10:26:03;;;;;;;15.18;5.13;;;8.80;99.90;;;;;;5013437;28;20041;-56
2020/12/26 10:28:29;;;;;;;9.65;4.75;;;9.10;99.90;;;;;;5012414;28;20030;-57
2020/12/26 10:30:55;;;;;;;9.02;4.05;;;9.80;99.90;;;;;;5013533;28;20030;-56
2020/12/26 10:33:21;;;;;;;6.22;3.22;;;10.10;99.00;;;;;;5012831;28;20028;-58
2020/12/26 10:35:47;;;;;;;9.20;4.35;;;10.60;98.10;;;;;;5013319;28;20052;-56
2020/12/26 10:38:15;;;;;;;7.97;3.83;;;10.80;97.40;;;;;;5013345;28;20179;-58
2020/12/26 10:40:41;;;;;;;13.13;5.95;;;10.70;97.30;;;;;;5013039;28;20116;-59
2020/12/26 10:43:07;;;;;;;8.27;3.95;;;10.60;97.80;;;;;;5013009;28;20507;-58
2020/12/26 10:45:33;;;;;;;12.38;4.32;;;10.50;98.10;;;;;;5013217;28;20034;-56
2020/12/26 10:47:59;;;;;;;14.18;4.22;;;10.80;97.40;;;;;;5013285;28;20021;-56
2020/12/26 10:50:25;;;;;;;8.68;3.92;;;10.70;97.20;;;;;;5012949;28;20040;-56
2020/12/26 10:52:51;;;;;;;8.57;4.28;;;11.10;97.20;;;;;;5011985;28;20042;-57
2020/12/26 10:55:17;;;;;;;7.72;3.65;;;11.30;96.60;;;;;;5012543;28;20095;-58
2020/12/26 10:57:44;;;;;;;9.43;4.13;;;12.00;94.80;;;;;;5012876;28;20124;-57
2020/12/26 11:00:11;;;;;;;8.27;3.42;;;12.20;93.80;;;;;;5012448;28;20038;-55
2020/12/26 11:02:37;;;;;;;10.07;3.97;;;11.50;94.90;;;;;;5011775;28;20030;-55
2020/12/26 11:05:06;;;;;;;10.30;3.85;;;11.00;97.00;;;;;;5012497;28;20030;-55
2020/12/26 11:07:36;;;;;;;8.75;3.47;;;11.90;94.60;;;;;;5012630;28;20100;-57
2020/12/26 11:10:03;;;;;;;10.38;3.50;;;12.10;93.40;;;;;;5012342;28;20104;-56
2020/12/26 11:12:29;;;;;;;10.65;4.07;;;12.40;93.60;;;;;;5012574;28;20030;-55
2020/12/26 11:14:55;;;;;;;6.88;3.47;;;11.90;94.20;;;;;;5012443;28;20078;-57
2020/12/26 11:17:21;;;;;;;10.25;3.22;;;12.20;93.10;;;;;;5012629;28;20026;-59
2020/12/26 11:19:47;;;;;;;7.90;3.95;;;12.30;93.30;;;;;;5011278;28;20036;-57
2020/12/26 11:22:13;;;;;;;7.07;3.40;;;11.90;94.20;;;;;;5011796;28;20029;-56
2020/12/26 11:24:39;;;;;;;7.68;3.72;;;12.70;91.90;;;;;;5012657;28;20052;-59
2020/12/26 11:27:05;;;;;;;13.35;4.03;;;11.90;93.20;;;;;;5012754;28;20058;-56
2020/12/26 11:29:31;;;;;;;8.82;3.67;;;11.80;94.00;;;;;;5012217;28;20161;-56
2020/12/26 11:32:00;;;;;;;5.97;3.63;;;12.70;93.10;;;;;;5012093;28;20030;-55
2020/12/26 11:34:26;;;;;;;7.78;3.67;;;13.00;91.80;;;;;;5012263;28;20030;-57
2020/12/26 11:36:52;;;;;;;6.88;3.53;;;11.50;93.40;;;;;;5012104;28;20111;-58
2020/12/26 11:39:18;;;;;;;10.60;4.50;;;9.50;97.70;;;;;;5012443;28;20109;-58
2020/12/26 11:41:44;;;;;;;8.63;4.18;;;8.50;99.90;;;;;;5012544;28;20034;-58
2020/12/26 11:44:10;;;;;;;9.85;4.72;;;7.80;99.90;;;;;;5012505;28;20030;-56
2020/12/26 11:46:37;;;;;;;11.73;5.10;;;7.20;99.90;;;;;;5012082;28;20109;-57
2020/12/26 11:49:03;;;;;;;20.25;5.53;;;6.70;99.90;;;;;;5012259;28;20184;-57
2020/12/26 11:51:29;;;;;;;7.00;3.97;;;6.20;99.90;;;;;;5011791;28;20034;-57
2020/12/26 11:53:56;;;;;;;9.43;5.07;;;5.80;99.90;;;;;;5012142;28;20034;-55
2020/12/26 11:56:22;;;;;;;10.73;4.40;;;5.60;99.90;;;;;;5011855;28;20107;-56
2020/12/26 11:58:48;;;;;;;9.43;4.47;;;5.40;99.90;;;;;;5012064;28;20026;-56
2020/12/26 12:01:18;;;;;;;19.77;9.43;;;5.30;99.90;;;;;;5012286;28;20052;-56
2020/12/26 12:03:45;;;;;;;12.88;4.75;;;5.10;99.90;;;;;;5012192;28;20125;-56
2020/12/26 12:06:13;;;;;;;13.27;4.60;;;5.00;99.90;;;;;;5012097;28;20046;-57
2020/12/26 12:08:43;;;;;;;9.35;4.72;;;5.20;99.90;;;;;;5011997;28;20080;-55
2020/12/26 12:11:10;;;;;;;10.20;5.38;;;5.00;99.90;;;;;;5012181;28;20034;-56
2020/12/26 12:13:37;;;;;;;9.40;4.45;;;5.10;99.90;;;;;;5011739;28;20133;-56
2020/12/26 12:16:04;;;;;;;9.88;4.70;;;5.20;99.90;;;;;;5014786;28;20084;-55
2020/12/26 12:18:30;;;;;;;8.25;3.60;;;5.20;99.90;;;;;;5015786;28;20083;-56
2020/12/26 12:20:56;;;;;;;7.70;3.67;;;5.20;99.90;;;;;;5015528;28;20034;-56
2020/12/26 12:23:22;;;;;;;12.55;3.80;;;5.20;99.90;;;;;;5015659;28;20037;-57
2020/12/26 12:25:47;;;;;;;8.30;4.35;;;5.10;99.90;;;;;;5015624;28;20042;-55
2020/12/26 12:28:13;;;;;;;10.70;5.15;;;5.00;99.90;;;;;;5015203;28;20030;-56
2020/12/26 12:30:39;;;;;;;13.30;5.03;;;5.00;99.90;;;;;;5015134;28;20121;-54
2020/12/26 12:33:05;;;;;;;11.88;4.97;;;5.00;99.90;;;;;;5015445;28;20037;-66
2020/12/26 12:35:31;;;;;;;8.77;5.35;;;5.10;99.90;;;;;;4997595;28;20042;-55
2020/12/26 12:37:57;;;;;;;10.68;4.68;;;5.10;99.90;;;;;;5014370;28;20022;-55
2020/12/26 12:40:23;;;;;;;7.75;3.88;;;5.10;99.90;;;;;;5013534;28;20034;-55
2020/12/26 12:42:49;;;;;;;6.30;3.63;;;5.10;99.90;;;;;;5014179;28;20060;-59
2020/12/26 12:45:15;;;;;;;10.18;5.13;;;5.00;99.90;;;;;;5013944;28;20041;-57
2020/12/26 12:47:41;;;;;;;7.63;4.22;;;4.90;99.90;;;;;;5013801;28;20026;-58
2020/12/26 12:50:08;;;;;;;9.82;4.40;;;4.90;99.90;;;;;;5013866;28;20052;-55